sensor_id;sensor_type;location;lat;lon;timestamp;P1;durP1;ratioP1;P2;durP2;ratioP2
56116;SDS011;41989;45.356;20.392;2024-02-15T00:02:06;110.80;;;61.30;;
56116;SDS011;41989;45.356;20.392;2024-02-15T00:04:33;112.47;;;61.35;;
56116;SDS011;41989;45.356;20.392;2024-02-15T00:06:59;125.45;;;65.70;;
56116;SDS011;41989;45.356;20.392;2024-02-15T00:09:27;136.25;;;69.55;;
56116;SDS011;41989;45.356;20.392;2024-02-15T00:11:53;125.82;;;66.85;;
56116;SDS011;41989;45.356;20.392;2024-02-15T00:14:19;124.75;;;65.72;;
56116;SDS011;41989;45.356;20.392;2024-02-15T00:16:46;134.50;;;67.95;;
56116;SDS011;41989;45.356;20.392;2024-02-15T00:19:12;128.27;;;64.93;;
56116;SDS011;41989;45.356;20.392;2024-02-15T00:21:45;106.35;;;56.08;;
56116;SDS011;41989;45.356;20.392;2024-02-15T00:24:11;95.28;;;50.95;;
56116;SDS011;41989;45.356;20.392;2024-02-15T00:26:38;101.78;;;50.47;;
56116;SDS011;41989;45.356;20.392;2024-02-15T00:29:05;93.65;;;50.25;;
56116;SDS011;41989;45.356;20.392;2024-02-15T00:31:31;98.85;;;51.85;;
56116;SDS011;41989;45.356;20.392;2024-02-15T00:33:57;93.93;;;49.97;;
56116;SDS011;41989;45.356;20.392;2024-02-15T00:36:24;95.95;;;53.15;;
56116;SDS011;41989;45.356;20.392;2024-02-15T00:38:50;88.25;;;48.78;;
56116;SDS011;41989;45.356;20.392;2024-02-15T00:41:20;88.97;;;49.45;;
56116;SDS011;41989;45.356;20.392;2024-02-15T00:43:46;90.50;;;47.88;;
56116;SDS011;41989;45.356;20.392;2024-02-15T00:46:13;82.47;;;46.70;;
56116;SDS011;41989;45.356;20.392;2024-02-15T00:48:39;86.47;;;47.13;;
56116;SDS011;41989;45.356;20.392;2024-02-15T00:51:06;84.45;;;44.65;;
56116;SDS011;41989;45.356;20.392;2024-02-15T00:53:32;78.05;;;45.38;;
56116;SDS011;41989;45.356;20.392;2024-02-15T00:55:58;79.75;;;43.70;;
56116;SDS011;41989;45.356;20.392;2024-02-15T00:58:25;85.72;;;46.65;;
56116;SDS011;41989;45.356;20.392;2024-02-15T01:00:52;90.05;;;46.55;;
56116;SDS011;41989;45.356;20.392;2024-02-15T01:03:21;90.20;;;47.97;;
56116;SDS011;41989;45.356;20.392;2024-02-15T01:05:47;100.60;;;49.47;;
56116;SDS011;41989;45.356;20.392;2024-02-15T01:08:17;101.40;;;52.40;;
56116;SDS011;41989;45.356;20.392;2024-02-15T01:10:43;104.07;;;55.42;;
56116;SDS011;41989;45.356;20.392;2024-02-15T01:13:09;110.13;;;57.20;;
56116;SDS011;41989;45.356;20.392;2024-02-15T01:15:35;109.90;;;56.45;;
56116;SDS011;41989;45.356;20.392;2024-02-15T01:18:04;108.95;;;57.47;;
56116;SDS011;41989;45.356;20.392;2024-02-15T01:20:30;103.20;;;55.60;;
56116;SDS011;41989;45.356;20.392;2024-02-15T01:22:56;113.47;;;62.78;;
56116;SDS011;41989;45.356;20.392;2024-02-15T01:25:22;115.20;;;62.53;;
56116;SDS011;41989;45.356;20.392;2024-02-15T01:27:48;108.60;;;60.60;;
56116;SDS011;41989;45.356;20.392;2024-02-15T01:30:16;109.70;;;58.47;;
56116;SDS011;41989;45.356;20.392;2024-02-15T01:32:42;107.82;;;59.10;;
56116;SDS011;41989;45.356;20.392;2024-02-15T01:35:08;113.88;;;63.72;;
56116;SDS011;41989;45.356;20.392;2024-02-15T01:37:35;120.00;;;63.22;;
56116;SDS011;41989;45.356;20.392;2024-02-15T01:40:02;114.95;;;63.17;;
56116;SDS011;41989;45.356;20.392;2024-02-15T01:42:28;118.63;;;67.05;;
56116;SDS011;41989;45.356;20.392;2024-02-15T01:44:54;113.70;;;61.85;;
56116;SDS011;41989;45.356;20.392;2024-02-15T01:47:20;109.93;;;60.45;;
56116;SDS011;41989;45.356;20.392;2024-02-15T01:49:47;105.97;;;60.05;;
56116;SDS011;41989;45.356;20.392;2024-02-15T01:52:14;106.35;;;58.80;;
56116;SDS011;41989;45.356;20.392;2024-02-15T01:54:42;107.80;;;59.50;;
56116;SDS011;41989;45.356;20.392;2024-02-15T01:57:08;107.55;;;60.38;;
56116;SDS011;41989;45.356;20.392;2024-02-15T01:59:34;111.10;;;62.00;;
56116;SDS011;41989;45.356;20.392;2024-02-15T02:02:01;115.95;;;62.20;;
56116;SDS011;41989;45.356;20.392;2024-02-15T02:04:28;112.50;;;59.67;;
56116;SDS011;41989;45.356;20.392;2024-02-15T02:06:56;116.10;;;61.97;;
56116;SDS011;41989;45.356;20.392;2024-02-15T02:09:24;109.53;;;60.90;;
56116;SDS011;41989;45.356;20.392;2024-02-15T02:11:50;111.25;;;60.90;;
56116;SDS011;41989;45.356;20.392;2024-02-15T02:14:16;113.07;;;59.03;;
56116;SDS011;41989;45.356;20.392;2024-02-15T02:16:45;103.85;;;56.63;;
56116;SDS011;41989;45.356;20.392;2024-02-15T02:19:12;104.50;;;56.10;;
56116;SDS011;41989;45.356;20.392;2024-02-15T02:21:38;107.28;;;56.60;;
56116;SDS011;41989;45.356;20.392;2024-02-15T02:24:08;103.20;;;56.58;;
56116;SDS011;41989;45.356;20.392;2024-02-15T02:26:36;101.82;;;55.60;;
56116;SDS011;41989;45.356;20.392;2024-02-15T02:29:02;96.35;;;53.55;;
56116;SDS011;41989;45.356;20.392;2024-02-15T02:31:39;105.80;;;54.75;;
56116;SDS011;41989;45.356;20.392;2024-02-15T02:34:05;96.30;;;53.25;;
56116;SDS011;41989;45.356;20.392;2024-02-15T02:36:32;90.28;;;50.58;;
56116;SDS011;41989;45.356;20.392;2024-02-15T02:38:59;90.80;;;49.72;;
56116;SDS011;41989;45.356;20.392;2024-02-15T02:41:28;91.53;;;51.10;;
56116;SDS011;41989;45.356;20.392;2024-02-15T02:43:55;94.88;;;50.53;;
56116;SDS011;41989;45.356;20.392;2024-02-15T02:46:22;99.68;;;57.65;;
56116;SDS011;41989;45.356;20.392;2024-02-15T02:48:48;109.95;;;58.25;;
56116;SDS011;41989;45.356;20.392;2024-02-15T02:51:15;117.93;;;63.40;;
56116;SDS011;41989;45.356;20.392;2024-02-15T02:53:41;116.68;;;63.33;;
56116;SDS011;41989;45.356;20.392;2024-02-15T02:56:07;123.90;;;65.03;;
56116;SDS011;41989;45.356;20.392;2024-02-15T02:58:34;121.70;;;62.63;;
56116;SDS011;41989;45.356;20.392;2024-02-15T03:01:00;124.93;;;66.47;;
56116;SDS011;41989;45.356;20.392;2024-02-15T03:03:27;121.50;;;63.17;;
56116;SDS011;41989;45.356;20.392;2024-02-15T03:05:53;116.15;;;59.67;;
56116;SDS011;41989;45.356;20.392;2024-02-15T03:08:19;114.88;;;61.15;;
56116;SDS011;41989;45.356;20.392;2024-02-15T03:10:47;111.95;;;61.15;;
56116;SDS011;41989;45.356;20.392;2024-02-15T03:13:13;117.97;;;64.32;;
56116;SDS011;41989;45.356;20.392;2024-02-15T03:15:39;108.35;;;59.78;;
56116;SDS011;41989;45.356;20.392;2024-02-15T03:18:06;110.50;;;57.08;;
56116;SDS011;41989;45.356;20.392;2024-02-15T03:20:33;110.68;;;58.47;;
56116;SDS011;41989;45.356;20.392;2024-02-15T03:23:00;107.40;;;58.20;;
56116;SDS011;41989;45.356;20.392;2024-02-15T03:25:28;105.10;;;57.67;;
56116;SDS011;41989;45.356;20.392;2024-02-15T03:27:55;112.47;;;62.35;;
56116;SDS011;41989;45.356;20.392;2024-02-15T03:30:22;104.78;;;56.33;;
56116;SDS011;41989;45.356;20.392;2024-02-15T03:32:49;105.20;;;57.08;;
56116;SDS011;41989;45.356;20.392;2024-02-15T03:35:19;111.90;;;59.45;;
56116;SDS011;41989;45.356;20.392;2024-02-15T03:37:47;111.43;;;60.55;;
56116;SDS011;41989;45.356;20.392;2024-02-15T03:40:16;101.53;;;55.72;;
56116;SDS011;41989;45.356;20.392;2024-02-15T03:42:42;100.00;;;55.80;;
56116;SDS011;41989;45.356;20.392;2024-02-15T03:45:08;104.70;;;57.38;;
56116;SDS011;41989;45.356;20.392;2024-02-15T03:47:36;106.93;;;57.78;;
56116;SDS011;41989;45.356;20.392;2024-02-15T03:50:05;105.80;;;56.38;;
56116;SDS011;41989;45.356;20.392;2024-02-15T03:52:34;101.88;;;56.88;;
56116;SDS011;41989;45.356;20.392;2024-02-15T03:55:01;96.43;;;56.88;;
56116;SDS011;41989;45.356;20.392;2024-02-15T03:57:27;101.20;;;54.20;;
56116;SDS011;41989;45.356;20.392;2024-02-15T03:59:53;89.25;;;48.58;;
56116;SDS011;41989;45.356;20.392;2024-02-15T04:02:22;86.97;;;50.25;;
56116;SDS011;41989;45.356;20.392;2024-02-15T04:04:49;91.43;;;50.47;;
56116;SDS011;41989;45.356;20.392;2024-02-15T04:07:19;92.18;;;49.47;;
56116;SDS011;41989;45.356;20.392;2024-02-15T04:09:45;88.82;;;47.58;;
56116;SDS011;41989;45.356;20.392;2024-02-15T04:12:12;88.93;;;47.28;;
56116;SDS011;41989;45.356;20.392;2024-02-15T04:14:39;89.50;;;48.38;;
56116;SDS011;41989;45.356;20.392;2024-02-15T04:17:06;86.30;;;47.90;;
56116;SDS011;41989;45.356;20.392;2024-02-15T04:19:32;77.05;;;43.35;;
56116;SDS011;41989;45.356;20.392;2024-02-15T04:21:58;82.93;;;45.47;;
56116;SDS011;41989;45.356;20.392;2024-02-15T04:24:32;80.28;;;44.10;;
56116;SDS011;41989;45.356;20.392;2024-02-15T04:26:59;84.72;;;45.78;;
56116;SDS011;41989;45.356;20.392;2024-02-15T04:29:26;74.70;;;42.75;;
56116;SDS011;41989;45.356;20.392;2024-02-15T04:31:55;72.40;;;42.17;;
56116;SDS011;41989;45.356;20.392;2024-02-15T04:34:21;69.32;;;40.47;;
56116;SDS011;41989;45.356;20.392;2024-02-15T04:36:48;76.50;;;44.13;;
56116;SDS011;41989;45.356;20.392;2024-02-15T04:39:24;82.22;;;45.97;;
56116;SDS011;41989;45.356;20.392;2024-02-15T04:41:54;84.32;;;44.92;;
56116;SDS011;41989;45.356;20.392;2024-02-15T04:44:21;85.85;;;46.35;;
56116;SDS011;41989;45.356;20.392;2024-02-15T04:46:51;94.97;;;50.33;;
56116;SDS011;41989;45.356;20.392;2024-02-15T04:49:18;96.93;;;52.35;;
56116;SDS011;41989;45.356;20.392;2024-02-15T04:51:44;93.63;;;53.65;;
56116;SDS011;41989;45.356;20.392;2024-02-15T04:54:12;98.53;;;53.08;;
56116;SDS011;41989;45.356;20.392;2024-02-15T04:56:39;95.85;;;52.17;;
56116;SDS011;41989;45.356;20.392;2024-02-15T04:59:05;101.22;;;57.75;;
56116;SDS011;41989;45.356;20.392;2024-02-15T05:01:34;106.38;;;57.60;;
56116;SDS011;41989;45.356;20.392;2024-02-15T05:04:00;503.33;;;145.45;;
56116;SDS011;41989;45.356;20.392;2024-02-15T05:06:31;361.55;;;104.80;;
56116;SDS011;41989;45.356;20.392;2024-02-15T05:08:57;228.23;;;81.25;;
56116;SDS011;41989;45.356;20.392;2024-02-15T05:11:25;148.85;;;63.90;;
56116;SDS011;41989;45.356;20.392;2024-02-15T05:13:51;110.72;;;56.63;;
56116;SDS011;41989;45.356;20.392;2024-02-15T05:16:17;107.38;;;56.72;;
56116;SDS011;41989;45.356;20.392;2024-02-15T05:18:44;98.15;;;52.17;;
56116;SDS011;41989;45.356;20.392;2024-02-15T05:21:13;98.97;;;50.78;;
56116;SDS011;41989;45.356;20.392;2024-02-15T05:23:40;101.47;;;52.57;;
56116;SDS011;41989;45.356;20.392;2024-02-15T05:26:07;89.65;;;47.33;;
56116;SDS011;41989;45.356;20.392;2024-02-15T05:28:34;79.10;;;45.92;;
56116;SDS011;41989;45.356;20.392;2024-02-15T05:31:12;82.47;;;47.88;;
56116;SDS011;41989;45.356;20.392;2024-02-15T05:33:45;94.18;;;47.35;;
56116;SDS011;41989;45.356;20.392;2024-02-15T05:36:16;86.15;;;46.40;;
56116;SDS011;41989;45.356;20.392;2024-02-15T05:38:45;92.18;;;48.15;;
56116;SDS011;41989;45.356;20.392;2024-02-15T05:41:11;91.93;;;49.72;;
56116;SDS011;41989;45.356;20.392;2024-02-15T05:43:40;92.40;;;50.70;;
56116;SDS011;41989;45.356;20.392;2024-02-15T05:46:09;85.90;;;50.10;;
56116;SDS011;41989;45.356;20.392;2024-02-15T05:48:36;90.68;;;50.70;;
56116;SDS011;41989;45.356;20.392;2024-02-15T05:51:04;98.45;;;49.72;;
56116;SDS011;41989;45.356;20.392;2024-02-15T05:53:31;93.82;;;48.13;;
56116;SDS011;41989;45.356;20.392;2024-02-15T05:56:04;93.45;;;49.83;;
56116;SDS011;41989;45.356;20.392;2024-02-15T05:58:30;91.85;;;48.17;;
56116;SDS011;41989;45.356;20.392;2024-02-15T06:00:57;108.05;;;54.83;;
56116;SDS011;41989;45.356;20.392;2024-02-15T06:03:30;117.10;;;60.80;;
56116;SDS011;41989;45.356;20.392;2024-02-15T06:06:02;109.80;;;58.20;;
56116;SDS011;41989;45.356;20.392;2024-02-15T06:08:32;95.07;;;53.20;;
56116;SDS011;41989;45.356;20.392;2024-02-15T06:10:58;91.80;;;49.30;;
56116;SDS011;41989;45.356;20.392;2024-02-15T06:13:25;91.75;;;49.70;;
56116;SDS011;41989;45.356;20.392;2024-02-15T06:15:51;81.97;;;45.90;;
56116;SDS011;41989;45.356;20.392;2024-02-15T06:18:22;78.50;;;43.88;;
56116;SDS011;41989;45.356;20.392;2024-02-15T06:20:56;73.75;;;41.83;;
56116;SDS011;41989;45.356;20.392;2024-02-15T06:23:24;72.28;;;41.58;;
56116;SDS011;41989;45.356;20.392;2024-02-15T06:25:52;70.55;;;39.92;;
56116;SDS011;41989;45.356;20.392;2024-02-15T06:28:18;69.15;;;39.85;;
56116;SDS011;41989;45.356;20.392;2024-02-15T06:31:05;79.72;;;40.45;;
56116;SDS011;41989;45.356;20.392;2024-02-15T06:33:50;73.70;;;40.17;;
56116;SDS011;41989;45.356;20.392;2024-02-15T06:36:38;86.53;;;48.78;;
56116;SDS011;41989;45.356;20.392;2024-02-15T06:39:23;86.80;;;54.83;;
56116;SDS011;41989;45.356;20.392;2024-02-15T06:42:08;80.97;;;49.05;;
56116;SDS011;41989;45.356;20.392;2024-02-15T06:44:36;83.78;;;47.88;;
56116;SDS011;41989;45.356;20.392;2024-02-15T06:47:05;78.72;;;45.20;;
56116;SDS011;41989;45.356;20.392;2024-02-15T06:49:31;74.60;;;42.95;;
56116;SDS011;41989;45.356;20.392;2024-02-15T06:51:58;69.65;;;42.53;;
56116;SDS011;41989;45.356;20.392;2024-02-15T06:54:27;70.38;;;42.53;;
56116;SDS011;41989;45.356;20.392;2024-02-15T06:56:53;65.15;;;41.33;;
56116;SDS011;41989;45.356;20.392;2024-02-15T06:59:20;68.57;;;43.90;;
56116;SDS011;41989;45.356;20.392;2024-02-15T07:01:48;79.63;;;46.10;;
56116;SDS011;41989;45.356;20.392;2024-02-15T07:04:14;71.53;;;45.70;;
56116;SDS011;41989;45.356;20.392;2024-02-15T07:06:40;75.15;;;45.92;;
56116;SDS011;41989;45.356;20.392;2024-02-15T07:09:10;71.90;;;45.97;;
56116;SDS011;41989;45.356;20.392;2024-02-15T07:11:36;78.43;;;47.28;;
56116;SDS011;41989;45.356;20.392;2024-02-15T07:14:02;92.20;;;49.20;;
56116;SDS011;41989;45.356;20.392;2024-02-15T07:16:32;101.72;;;56.10;;
56116;SDS011;41989;45.356;20.392;2024-02-15T07:18:59;66.22;;;41.25;;
56116;SDS011;41989;45.356;20.392;2024-02-15T07:21:25;66.47;;;39.80;;
56116;SDS011;41989;45.356;20.392;2024-02-15T07:23:53;63.63;;;40.60;;
56116;SDS011;41989;45.356;20.392;2024-02-15T07:26:20;58.40;;;37.85;;
56116;SDS011;41989;45.356;20.392;2024-02-15T07:28:49;62.47;;;37.38;;
56116;SDS011;41989;45.356;20.392;2024-02-15T07:31:17;59.75;;;36.65;;
56116;SDS011;41989;45.356;20.392;2024-02-15T07:33:43;59.25;;;35.47;;
56116;SDS011;41989;45.356;20.392;2024-02-15T07:36:09;58.90;;;36.80;;
56116;SDS011;41989;45.356;20.392;2024-02-15T07:38:35;53.25;;;34.88;;
56116;SDS011;41989;45.356;20.392;2024-02-15T07:41:02;50.35;;;33.22;;
56116;SDS011;41989;45.356;20.392;2024-02-15T07:43:28;51.20;;;33.65;;
56116;SDS011;41989;45.356;20.392;2024-02-15T07:45:54;52.90;;;31.65;;
56116;SDS011;41989;45.356;20.392;2024-02-15T07:48:20;61.80;;;37.75;;
56116;SDS011;41989;45.356;20.392;2024-02-15T07:50:47;54.58;;;34.17;;
56116;SDS011;41989;45.356;20.392;2024-02-15T07:53:13;52.65;;;34.30;;
56116;SDS011;41989;45.356;20.392;2024-02-15T07:55:42;41.42;;;28.90;;
56116;SDS011;41989;45.356;20.392;2024-02-15T07:58:09;42.55;;;27.77;;
56116;SDS011;41989;45.356;20.392;2024-02-15T08:00:35;40.03;;;27.25;;
56116;SDS011;41989;45.356;20.392;2024-02-15T08:03:03;33.88;;;23.65;;
56116;SDS011;41989;45.356;20.392;2024-02-15T08:05:32;39.95;;;25.85;;
56116;SDS011;41989;45.356;20.392;2024-02-15T08:08:00;40.28;;;26.15;;
56116;SDS011;41989;45.356;20.392;2024-02-15T08:10:28;40.38;;;26.33;;
56116;SDS011;41989;45.356;20.392;2024-02-15T08:12:55;35.75;;;24.80;;
56116;SDS011;41989;45.356;20.392;2024-02-15T08:15:23;38.25;;;24.40;;
56116;SDS011;41989;45.356;20.392;2024-02-15T08:17:52;34.03;;;23.73;;
56116;SDS011;41989;45.356;20.392;2024-02-15T08:20:20;38.33;;;25.67;;
56116;SDS011;41989;45.356;20.392;2024-02-15T08:22:46;33.97;;;23.02;;
56116;SDS011;41989;45.356;20.392;2024-02-15T08:25:13;31.60;;;22.05;;
56116;SDS011;41989;45.356;20.392;2024-02-15T08:27:43;33.17;;;22.10;;
56116;SDS011;41989;45.356;20.392;2024-02-15T08:30:10;37.13;;;22.90;;
56116;SDS011;41989;45.356;20.392;2024-02-15T08:32:38;30.95;;;22.33;;
56116;SDS011;41989;45.356;20.392;2024-02-15T08:35:07;34.50;;;23.85;;
56116;SDS011;41989;45.356;20.392;2024-02-15T08:37:34;39.95;;;22.85;;
56116;SDS011;41989;45.356;20.392;2024-02-15T08:40:02;32.70;;;22.27;;
56116;SDS011;41989;45.356;20.392;2024-02-15T08:42:29;39.67;;;21.38;;
56116;SDS011;41989;45.356;20.392;2024-02-15T08:44:57;33.50;;;21.25;;
56116;SDS011;41989;45.356;20.392;2024-02-15T08:47:24;34.75;;;22.65;;
56116;SDS011;41989;45.356;20.392;2024-02-15T08:49:50;31.33;;;19.65;;
56116;SDS011;41989;45.356;20.392;2024-02-15T08:52:16;35.10;;;23.67;;
56116;SDS011;41989;45.356;20.392;2024-02-15T08:54:43;34.00;;;22.00;;
56116;SDS011;41989;45.356;20.392;2024-02-15T08:57:09;30.48;;;21.30;;
56116;SDS011;41989;45.356;20.392;2024-02-15T08:59:36;32.38;;;21.17;;
56116;SDS011;41989;45.356;20.392;2024-02-15T09:02:02;27.38;;;19.35;;
56116;SDS011;41989;45.356;20.392;2024-02-15T09:04:30;25.30;;;18.40;;
56116;SDS011;41989;45.356;20.392;2024-02-15T09:06:56;25.77;;;17.52;;
56116;SDS011;41989;45.356;20.392;2024-02-15T09:09:22;27.33;;;16.65;;
56116;SDS011;41989;45.356;20.392;2024-02-15T09:11:49;24.65;;;16.63;;
56116;SDS011;41989;45.356;20.392;2024-02-15T09:14:15;27.30;;;19.25;;
56116;SDS011;41989;45.356;20.392;2024-02-15T09:16:41;23.63;;;15.25;;
56116;SDS011;41989;45.356;20.392;2024-02-15T09:19:07;24.50;;;17.90;;
56116;SDS011;41989;45.356;20.392;2024-02-15T09:21:33;24.95;;;17.48;;
56116;SDS011;41989;45.356;20.392;2024-02-15T09:23:59;25.48;;;17.27;;
56116;SDS011;41989;45.356;20.392;2024-02-15T09:26:25;24.42;;;17.38;;
56116;SDS011;41989;45.356;20.392;2024-02-15T09:28:52;23.55;;;16.30;;
56116;SDS011;41989;45.356;20.392;2024-02-15T09:31:19;24.35;;;18.25;;
56116;SDS011;41989;45.356;20.392;2024-02-15T09:33:45;76.57;;;44.17;;
56116;SDS011;41989;45.356;20.392;2024-02-15T09:36:11;23.65;;;17.80;;
56116;SDS011;41989;45.356;20.392;2024-02-15T09:38:41;25.27;;;15.88;;
56116;SDS011;41989;45.356;20.392;2024-02-15T09:41:07;20.85;;;16.63;;
56116;SDS011;41989;45.356;20.392;2024-02-15T09:43:34;23.20;;;16.60;;
56116;SDS011;41989;45.356;20.392;2024-02-15T09:46:00;21.35;;;14.73;;
56116;SDS011;41989;45.356;20.392;2024-02-15T09:48:29;18.20;;;13.98;;
56116;SDS011;41989;45.356;20.392;2024-02-15T09:50:55;19.48;;;13.57;;
56116;SDS011;41989;45.356;20.392;2024-02-15T09:53:22;20.85;;;14.90;;
56116;SDS011;41989;45.356;20.392;2024-02-15T09:55:53;20.13;;;13.75;;
56116;SDS011;41989;45.356;20.392;2024-02-15T09:58:20;19.20;;;12.40;;
56116;SDS011;41989;45.356;20.392;2024-02-15T10:00:48;16.52;;;11.35;;
56116;SDS011;41989;45.356;20.392;2024-02-15T10:03:16;15.10;;;9.63;;
56116;SDS011;41989;45.356;20.392;2024-02-15T10:08:11;14.63;;;8.80;;
56116;SDS011;41989;45.356;20.392;2024-02-15T10:10:37;16.13;;;9.05;;
56116;SDS011;41989;45.356;20.392;2024-02-15T10:13:03;13.75;;;9.73;;
56116;SDS011;41989;45.356;20.392;2024-02-15T10:15:30;15.88;;;9.27;;
56116;SDS011;41989;45.356;20.392;2024-02-15T10:17:57;12.82;;;9.23;;
56116;SDS011;41989;45.356;20.392;2024-02-15T10:20:28;14.70;;;10.10;;
56116;SDS011;41989;45.356;20.392;2024-02-15T10:25:33;16.60;;;10.10;;
56116;SDS011;41989;45.356;20.392;2024-02-15T10:30:33;14.63;;;9.40;;
56116;SDS011;41989;45.356;20.392;2024-02-15T10:33:00;12.27;;;9.15;;
56116;SDS011;41989;45.356;20.392;2024-02-15T10:35:26;16.92;;;11.15;;
56116;SDS011;41989;45.356;20.392;2024-02-15T10:37:52;14.25;;;10.10;;
56116;SDS011;41989;45.356;20.392;2024-02-15T10:40:30;15.20;;;10.48;;
56116;SDS011;41989;45.356;20.392;2024-02-15T10:42:56;14.40;;;9.68;;
56116;SDS011;41989;45.356;20.392;2024-02-15T10:45:24;15.40;;;10.05;;
56116;SDS011;41989;45.356;20.392;2024-02-15T10:47:55;15.15;;;9.27;;
56116;SDS011;41989;45.356;20.392;2024-02-15T10:50:22;15.30;;;9.50;;
56116;SDS011;41989;45.356;20.392;2024-02-15T10:55:21;13.47;;;9.67;;
56116;SDS011;41989;45.356;20.392;2024-02-15T11:00:14;12.85;;;9.43;;
56116;SDS011;41989;45.356;20.392;2024-02-15T11:03:07;14.55;;;10.27;;
56116;SDS011;41989;45.356;20.392;2024-02-15T11:05:34;16.33;;;10.15;;
56116;SDS011;41989;45.356;20.392;2024-02-15T11:08:07;13.35;;;10.13;;
56116;SDS011;41989;45.356;20.392;2024-02-15T11:10:34;15.35;;;10.75;;
56116;SDS011;41989;45.356;20.392;2024-02-15T11:13:01;13.93;;;9.60;;
56116;SDS011;41989;45.356;20.392;2024-02-15T11:18:41;13.52;;;9.18;;
56116;SDS011;41989;45.356;20.392;2024-02-15T11:21:00;12.88;;;8.07;;
56116;SDS011;41989;45.356;20.392;2024-02-15T11:23:26;10.07;;;7.80;;
56116;SDS011;41989;45.356;20.392;2024-02-15T11:25:53;15.10;;;7.68;;
56116;SDS011;41989;45.356;20.392;2024-02-15T11:30:53;12.52;;;8.38;;
56116;SDS011;41989;45.356;20.392;2024-02-15T11:33:29;9.55;;;7.13;;
56116;SDS011;41989;45.356;20.392;2024-02-15T11:36:02;9.63;;;6.63;;
56116;SDS011;41989;45.356;20.392;2024-02-15T11:38:32;18.05;;;7.97;;
56116;SDS011;41989;45.356;20.392;2024-02-15T11:41:00;10.65;;;7.03;;
56116;SDS011;41989;45.356;20.392;2024-02-15T11:43:47;14.20;;;8.00;;
56116;SDS011;41989;45.356;20.392;2024-02-15T11:46:22;10.27;;;7.18;;
56116;SDS011;41989;45.356;20.392;2024-02-15T11:48:52;13.95;;;8.13;;
56116;SDS011;41989;45.356;20.392;2024-02-15T11:51:35;17.60;;;7.50;;
56116;SDS011;41989;45.356;20.392;2024-02-15T11:54:12;11.95;;;7.85;;
56116;SDS011;41989;45.356;20.392;2024-02-15T11:59:19;13.68;;;7.88;;
56116;SDS011;41989;45.356;20.392;2024-02-15T12:01:56;12.35;;;7.18;;
56116;SDS011;41989;45.356;20.392;2024-02-15T12:04:58;13.90;;;8.73;;
56116;SDS011;41989;45.356;20.392;2024-02-15T12:07:42;12.57;;;7.88;;
56116;SDS011;41989;45.356;20.392;2024-02-15T12:10:27;10.98;;;6.97;;
56116;SDS011;41989;45.356;20.392;2024-02-15T12:13:17;11.35;;;7.60;;
56116;SDS011;41989;45.356;20.392;2024-02-15T12:16:01;12.40;;;7.67;;
56116;SDS011;41989;45.356;20.392;2024-02-15T12:18:46;10.70;;;6.45;;
56116;SDS011;41989;45.356;20.392;2024-02-15T12:21:17;12.52;;;6.70;;
56116;SDS011;41989;45.356;20.392;2024-02-15T12:23:48;11.40;;;6.68;;
56116;SDS011;41989;45.356;20.392;2024-02-15T12:26:18;11.88;;;6.13;;
56116;SDS011;41989;45.356;20.392;2024-02-15T12:28:44;10.48;;;6.10;;
56116;SDS011;41989;45.356;20.392;2024-02-15T12:31:15;17.13;;;12.82;;
56116;SDS011;41989;45.356;20.392;2024-02-15T12:33:42;19.77;;;15.20;;
56116;SDS011;41989;45.356;20.392;2024-02-15T12:36:09;12.68;;;7.50;;
56116;SDS011;41989;45.356;20.392;2024-02-15T12:38:35;13.32;;;8.13;;
56116;SDS011;41989;45.356;20.392;2024-02-15T12:41:21;10.80;;;7.40;;
56116;SDS011;41989;45.356;20.392;2024-02-15T12:43:54;13.52;;;8.07;;
56116;SDS011;41989;45.356;20.392;2024-02-15T12:46:22;11.35;;;7.93;;
56116;SDS011;41989;45.356;20.392;2024-02-15T12:48:48;8.88;;;7.53;;
56116;SDS011;41989;45.356;20.392;2024-02-15T12:51:14;11.50;;;6.80;;
56116;SDS011;41989;45.356;20.392;2024-02-15T12:53:41;21.25;;;12.00;;
56116;SDS011;41989;45.356;20.392;2024-02-15T12:56:07;10.90;;;6.35;;
56116;SDS011;41989;45.356;20.392;2024-02-15T12:58:34;10.10;;;6.68;;
56116;SDS011;41989;45.356;20.392;2024-02-15T13:01:01;17.00;;;8.98;;
56116;SDS011;41989;45.356;20.392;2024-02-15T13:03:29;11.38;;;7.53;;
56116;SDS011;41989;45.356;20.392;2024-02-15T13:05:55;11.23;;;7.53;;
56116;SDS011;41989;45.356;20.392;2024-02-15T13:08:22;8.63;;;7.00;;
56116;SDS011;41989;45.356;20.392;2024-02-15T13:10:51;12.35;;;6.88;;
56116;SDS011;41989;45.356;20.392;2024-02-15T13:13:17;10.48;;;6.53;;
56116;SDS011;41989;45.356;20.392;2024-02-15T13:15:45;10.57;;;6.57;;
56116;SDS011;41989;45.356;20.392;2024-02-15T13:18:11;11.00;;;6.40;;
56116;SDS011;41989;45.356;20.392;2024-02-15T13:20:40;11.77;;;7.30;;
56116;SDS011;41989;45.356;20.392;2024-02-15T13:23:07;10.68;;;6.28;;
56116;SDS011;41989;45.356;20.392;2024-02-15T13:25:34;9.93;;;6.68;;
56116;SDS011;41989;45.356;20.392;2024-02-15T13:28:01;11.90;;;8.00;;
56116;SDS011;41989;45.356;20.392;2024-02-15T13:30:29;7.20;;;5.63;;
56116;SDS011;41989;45.356;20.392;2024-02-15T13:32:55;9.85;;;5.60;;
56116;SDS011;41989;45.356;20.392;2024-02-15T13:35:21;10.32;;;5.57;;
56116;SDS011;41989;45.356;20.392;2024-02-15T13:37:51;9.57;;;5.72;;
56116;SDS011;41989;45.356;20.392;2024-02-15T13:40:18;10.43;;;6.47;;
56116;SDS011;41989;45.356;20.392;2024-02-15T13:42:48;10.65;;;6.35;;
56116;SDS011;41989;45.356;20.392;2024-02-15T13:45:21;8.75;;;6.13;;
56116;SDS011;41989;45.356;20.392;2024-02-15T13:47:48;14.23;;;7.15;;
56116;SDS011;41989;45.356;20.392;2024-02-15T13:50:14;16.48;;;8.55;;
56116;SDS011;41989;45.356;20.392;2024-02-15T13:52:41;21.88;;;7.85;;
56116;SDS011;41989;45.356;20.392;2024-02-15T13:55:13;16.05;;;6.93;;
56116;SDS011;41989;45.356;20.392;2024-02-15T13:57:40;11.07;;;6.65;;
56116;SDS011;41989;45.356;20.392;2024-02-15T14:00:15;12.65;;;6.15;;
56116;SDS011;41989;45.356;20.392;2024-02-15T14:02:49;39.58;;;18.27;;
56116;SDS011;41989;45.356;20.392;2024-02-15T14:05:16;21.92;;;10.65;;
56116;SDS011;41989;45.356;20.392;2024-02-15T14:07:47;12.40;;;6.50;;
56116;SDS011;41989;45.356;20.392;2024-02-15T14:10:15;7.50;;;5.93;;
56116;SDS011;41989;45.356;20.392;2024-02-15T14:12:43;14.00;;;7.05;;
56116;SDS011;41989;45.356;20.392;2024-02-15T14:15:10;9.65;;;7.35;;
56116;SDS011;41989;45.356;20.392;2024-02-15T14:17:40;9.02;;;6.38;;
56116;SDS011;41989;45.356;20.392;2024-02-15T14:20:06;38.50;;;22.67;;
56116;SDS011;41989;45.356;20.392;2024-02-15T14:22:48;32.30;;;18.65;;
56116;SDS011;41989;45.356;20.392;2024-02-15T14:25:17;12.68;;;7.15;;
56116;SDS011;41989;45.356;20.392;2024-02-15T14:27:43;9.10;;;6.40;;
56116;SDS011;41989;45.356;20.392;2024-02-15T14:30:09;13.05;;;7.82;;
56116;SDS011;41989;45.356;20.392;2024-02-15T14:32:54;18.15;;;12.23;;
56116;SDS011;41989;45.356;20.392;2024-02-15T14:35:33;14.60;;;7.38;;
56116;SDS011;41989;45.356;20.392;2024-02-15T14:38:03;7.82;;;5.55;;